createdAt,value
2019-03-21T00:01:16.015Z,90.77
2019-03-21T00:03:48.760Z,90.44
2019-03-21T00:06:20.140Z,90.10
2019-03-21T00:08:52.274Z,90.53
2019-03-21T00:12:06.598Z,90.94
2019-03-21T00:15:02.224Z,91.01
2019-03-21T00:17:51.155Z,91.19
2019-03-21T00:20:22.843Z,91.42
2019-03-21T00:22:54.507Z,91.03
2019-03-21T00:25:26.445Z,90.61
2019-03-21T00:27:58.115Z,90.61
2019-03-21T00:30:29.986Z,90.89
2019-03-21T00:33:01.639Z,90.87
2019-03-21T00:35:33.341Z,90.81
2019-03-21T00:38:05.748Z,90.97
2019-03-21T00:40:43.845Z,91.07
2019-03-21T00:43:15.573Z,90.69
2019-03-21T00:45:47.177Z,90.87
2019-03-21T00:48:20.516Z,90.65
2019-03-21T00:50:51.853Z,90.76
2019-03-21T00:53:23.798Z,91.04
2019-03-21T00:55:55.377Z,90.90
2019-03-21T00:58:27.256Z,90.74
2019-03-21T01:00:59.494Z,91.00
2019-03-21T01:03:30.794Z,91.46
2019-03-21T01:06:02.344Z,91.36
2019-03-21T01:08:33.678Z,91.97
2019-03-21T01:11:05.258Z,91.90
2019-03-21T01:13:37.223Z,92.72
2019-03-21T01:16:08.606Z,92.35
2019-03-21T01:18:40.761Z,92.80
2019-03-21T01:21:12.351Z,93.56
2019-03-21T01:23:43.923Z,93.51
2019-03-21T01:26:15.384Z,93.63
2019-03-21T01:28:46.961Z,93.90
2019-03-21T01:31:18.278Z,94.00
2019-03-21T01:33:49.887Z,95.02
2019-03-21T01:36:22.978Z,94.67
2019-03-21T01:38:54.634Z,93.89
2019-03-21T01:41:26.245Z,94.26
2019-03-21T01:43:57.531Z,94.08
2019-03-21T01:46:28.900Z,93.89
2019-03-21T01:49:00.261Z,93.97
2019-03-21T01:51:31.536Z,93.89
2019-03-21T01:54:03.088Z,94.28
2019-03-21T01:56:34.395Z,94.09
2019-03-21T01:59:05.678Z,94.16
2019-03-21T02:01:37.092Z,93.75
2019-03-21T02:04:08.834Z,94.13
2019-03-21T02:06:40.401Z,93.92
2019-03-21T02:09:12.109Z,94.20
2019-03-21T02:11:44.037Z,94.17
2019-03-21T02:14:15.907Z,93.88
2019-03-21T02:16:47.636Z,94.12
2019-03-21T02:19:19.211Z,94.11
2019-03-21T02:21:50.778Z,93.88
2019-03-21T02:24:24.572Z,94.09
2019-03-21T02:26:56.219Z,94.11
2019-03-21T02:29:27.617Z,93.96
2019-03-21T02:31:59.071Z,94.36
2019-03-21T02:34:30.961Z,94.21
2019-03-21T02:37:02.744Z,94.23
2019-03-21T02:39:34.149Z,93.89
2019-03-21T02:42:05.769Z,94.16
2019-03-21T02:44:37.597Z,94.43
2019-03-21T02:47:08.939Z,94.31
2019-03-21T02:49:40.873Z,94.31
2019-03-21T02:52:12.472Z,94.46
2019-03-21T02:54:44.266Z,94.27
2019-03-21T02:57:15.872Z,94.27
2019-03-21T02:59:47.314Z,94.96
2019-03-21T03:02:19.120Z,94.69
2019-03-21T03:04:50.906Z,94.56
2019-03-21T03:07:22.469Z,94.34
2019-03-21T03:09:54.143Z,93.76
2019-03-21T03:12:25.716Z,93.90
2019-03-21T03:14:57.667Z,93.68
2019-03-21T03:17:29.473Z,93.74
2019-03-21T03:20:01.853Z,93.82
2019-03-21T03:22:33.589Z,93.42
2019-03-21T03:25:05.409Z,93.32
2019-03-21T03:27:37.287Z,93.07
2019-03-21T03:30:12.027Z,93.66
2019-03-21T03:32:43.632Z,93.67
2019-03-21T03:35:15.159Z,93.83
2019-03-21T03:37:46.937Z,93.79
2019-03-21T03:40:26.161Z,93.38
2019-03-21T03:42:57.577Z,93.37
2019-03-21T03:45:38.057Z,93.34
2019-03-21T03:48:05.970Z,93.05
2019-03-21T03:50:37.854Z,93.57
2019-03-21T03:53:09.428Z,93.36
2019-03-21T03:55:41.041Z,93.82
2019-03-21T03:58:14.972Z,94.30
2019-03-21T04:00:47.111Z,93.73
2019-03-21T04:03:19.221Z,93.73
2019-03-21T04:05:51.268Z,93.88
2019-03-21T04:08:22.593Z,93.94
2019-03-21T04:10:54.324Z,94.08
2019-03-21T04:13:26.223Z,94.26
2019-03-21T04:15:58.873Z,94.37
2019-03-21T04:18:30.523Z,94.74
2019-03-21T04:21:02.579Z,94.92
2019-03-21T04:23:33.931Z,95.23
2019-03-21T04:26:20.383Z,95.39
2019-03-21T04:28:52.711Z,95.30
2019-03-21T04:31:24.354Z,95.59
2019-03-21T04:33:58.258Z,95.10
2019-03-21T04:36:30.024Z,95.48
2019-03-21T04:39:01.307Z,95.30
2019-03-21T04:41:32.935Z,95.64
2019-03-21T04:44:04.269Z,96.05
2019-03-21T04:46:36.643Z,96.29
2019-03-21T04:49:08.242Z,95.54
2019-03-21T04:51:39.581Z,95.82
2019-03-21T04:54:10.884Z,95.66
2019-03-21T04:56:42.578Z,96.10
2019-03-21T04:59:14.561Z,96.25
2019-03-21T05:01:46.154Z,95.61
2019-03-21T05:04:17.841Z,95.64
2019-03-21T05:06:49.823Z,96.09
2019-03-21T05:09:22.222Z,96.22
2019-03-21T05:11:54.649Z,95.93
2019-03-21T05:14:26.743Z,96.11
2019-03-21T05:16:58.332Z,95.77
2019-03-21T05:19:29.970Z,95.27
2019-03-21T05:22:01.831Z,95.08
2019-03-21T05:24:33.752Z,95.34
2019-03-21T05:27:06.162Z,95.28
2019-03-21T05:29:38.207Z,94.93
2019-03-21T05:32:10.057Z,94.97
2019-03-21T05:34:41.604Z,95.43
2019-03-21T05:37:13.260Z,94.63
2019-03-21T05:39:44.631Z,94.61
2019-03-21T05:42:21.036Z,94.40
2019-03-21T05:44:52.631Z,94.21
2019-03-21T05:47:24.618Z,94.02
2019-03-21T05:49:56.849Z,93.82
2019-03-21T05:52:28.431Z,93.89
2019-03-21T05:55:00.395Z,93.33
2019-03-21T05:57:32.173Z,92.97
2019-03-21T06:00:03.837Z,93.22
2019-03-21T06:02:35.140Z,92.26
2019-03-21T06:05:07.030Z,92.23
2019-03-21T06:08:06.161Z,92.31
2019-03-21T06:10:38.557Z,92.20
2019-03-21T06:13:09.898Z,91.91
2019-03-21T06:15:41.473Z,91.84
2019-03-21T06:18:52.310Z,90.68
2019-03-21T06:21:47.328Z,90.29
2019-03-21T06:24:54.781Z,89.49
2019-03-21T06:27:32.429Z,88.87
2019-03-21T06:30:03.928Z,88.50
2019-03-21T06:32:35.328Z,88.10
2019-03-21T06:35:10.995Z,87.64
2019-03-21T06:37:42.581Z,87.42
2019-03-21T06:40:14.124Z,86.58
2019-03-21T06:42:45.526Z,86.69
2019-03-21T06:45:17.092Z,86.32
2019-03-21T06:47:52.899Z,85.40
2019-03-21T07:35:05.929Z,72.06
2019-03-21T07:37:37.406Z,72.29
2019-03-21T07:40:10.968Z,70.78
2019-03-21T07:42:42.229Z,71.21
2019-03-21T07:45:13.913Z,70.98
2019-03-21T07:47:45.456Z,69.84
2019-03-21T07:50:17.220Z,67.50
2019-03-21T07:52:48.656Z,67.27
2019-03-21T07:55:20.170Z,64.99
2019-03-21T07:57:53.778Z,63.64
2019-03-21T08:00:29.874Z,64.07
2019-03-21T08:03:01.447Z,64.45
2019-03-21T08:05:40.308Z,64.53
2019-03-21T08:08:06.913Z,62.26
2019-03-21T08:10:38.449Z,63.90
2019-03-21T08:13:09.957Z,61.00
2019-03-21T08:15:41.635Z,61.55
2019-03-21T08:18:13.167Z,60.48
2019-03-21T08:20:55.707Z,61.21
2019-03-21T08:23:18.118Z,61.00
2019-03-21T08:25:49.558Z,60.78
2019-03-21T08:28:21.007Z,61.59
2019-03-21T08:31:20.037Z,63.27
2019-03-21T08:33:51.917Z,62.92
2019-03-21T08:36:23.773Z,60.50
2019-03-21T08:38:57.081Z,60.86
2019-03-21T08:41:28.802Z,59.40
2019-03-21T08:44:03.462Z,58.45
2019-03-21T08:46:36.287Z,58.86
2019-03-21T08:49:07.801Z,57.86
2019-03-21T08:51:39.344Z,60.15
2019-03-21T08:54:10.847Z,58.00
2019-03-21T08:56:42.325Z,55.15
2019-03-21T08:59:13.936Z,56.11
2019-03-21T09:01:45.981Z,55.38
2019-03-21T09:04:17.498Z,54.09
2019-03-21T09:06:49.036Z,52.40
2019-03-21T09:09:20.571Z,52.83
2019-03-21T09:11:51.997Z,51.71
2019-03-21T09:14:23.735Z,50.78
2019-03-21T09:16:55.676Z,51.06
2019-03-21T09:19:27.049Z,49.79
2019-03-21T09:21:58.908Z,50.76
2019-03-21T09:24:30.508Z,50.00
2019-03-21T09:27:02.325Z,49.53
2019-03-21T09:29:34.073Z,48.93
2019-03-21T09:32:07.361Z,47.73
2019-03-21T09:34:39.138Z,47.17
2019-03-21T09:37:10.769Z,47.60
2019-03-21T09:39:42.751Z,48.38
2019-03-21T09:42:14.198Z,47.35
2019-03-21T09:44:46.044Z,46.60
2019-03-21T09:47:17.528Z,46.36
2019-03-21T09:49:49.380Z,44.45
2019-03-21T09:52:20.981Z,45.97
2019-03-21T09:54:52.382Z,45.08
2019-03-21T09:57:24.344Z,44.89
2019-03-21T09:59:56.236Z,45.39
2019-03-21T10:02:27.697Z,44.85
2019-03-21T10:04:59.157Z,44.15
2019-03-21T10:07:30.428Z,44.06
2019-03-21T10:10:02.434Z,43.31
2019-03-21T10:12:33.965Z,42.87
2019-03-21T10:15:05.416Z,42.37
2019-03-21T10:17:36.877Z,43.02
2019-03-21T10:20:08.884Z,41.96
2019-03-21T10:22:40.193Z,42.28
2019-03-21T10:25:11.732Z,41.08
2019-03-21T10:27:43.087Z,41.37
2019-03-21T10:30:18.591Z,41.37
2019-03-21T10:32:49.943Z,40.75
2019-03-21T10:35:22.294Z,40.34
2019-03-21T10:37:53.685Z,40.32
2019-03-21T10:40:25.137Z,40.88
2019-03-21T10:42:56.673Z,41.17
2019-03-21T10:45:28.262Z,42.14
2019-03-21T10:47:59.996Z,41.32
2019-03-21T10:50:34.605Z,40.74
2019-03-21T10:53:06.996Z,40.67
2019-03-21T10:55:39.279Z,40.81
2019-03-21T10:58:11.808Z,39.25
2019-03-21T11:00:43.270Z,37.98
2019-03-21T11:03:14.763Z,38.74
2019-03-21T11:05:46.156Z,39.26
2019-03-21T11:08:17.812Z,38.59
2019-03-21T11:10:49.323Z,38.16
2019-03-21T11:13:20.866Z,38.01
2019-03-21T11:15:52.489Z,36.81
2019-03-21T11:18:35.482Z,38.14
2019-03-21T11:20:57.480Z,37.44
2019-03-21T11:23:29.286Z,38.07
2019-03-21T11:26:00.997Z,37.34
2019-03-21T11:28:33.980Z,37.26
2019-03-21T11:31:06.055Z,37.05
2019-03-21T11:33:37.900Z,36.62
2019-03-21T11:36:09.182Z,37.01
2019-03-21T11:38:40.464Z,35.66
2019-03-21T11:41:11.624Z,35.89
2019-03-21T11:43:42.901Z,35.29
2019-03-21T11:46:14.365Z,35.86
2019-03-21T11:48:45.644Z,35.19
2019-03-21T11:51:16.910Z,35.99
2019-03-21T11:53:48.456Z,35.11
2019-03-21T11:56:19.961Z,34.37
2019-03-21T11:58:51.059Z,34.79
2019-03-21T12:01:22.740Z,34.81
2019-03-21T12:03:54.086Z,35.25
2019-03-21T12:06:25.333Z,34.76
2019-03-21T12:08:56.577Z,34.19
2019-03-21T12:11:28.016Z,34.27
2019-03-21T12:13:59.322Z,34.01
2019-03-21T12:16:30.651Z,34.42
2019-03-21T12:19:02.222Z,35.11
2019-03-21T12:21:33.802Z,34.40
2019-03-21T12:24:05.559Z,33.26
2019-03-21T12:26:36.837Z,34.19
2019-03-21T12:29:08.776Z,33.57
2019-03-21T12:31:40.077Z,33.76
2019-03-21T12:34:11.599Z,33.78
2019-03-21T12:36:43.244Z,33.74
2019-03-21T12:39:19.898Z,34.26
2019-03-21T12:41:51.161Z,34.57
2019-03-21T12:44:22.520Z,35.52
2019-03-21T12:46:53.940Z,35.20
2019-03-21T12:49:25.219Z,34.64
2019-03-21T12:51:56.466Z,36.14
2019-03-21T12:54:27.829Z,35.59
2019-03-21T12:56:59.182Z,34.85
2019-03-21T12:59:30.399Z,35.33
2019-03-21T13:02:01.753Z,34.12
2019-03-21T13:04:33.343Z,34.65
2019-03-21T13:07:04.653Z,34.04
2019-03-21T13:09:35.998Z,34.77
2019-03-21T13:12:07.271Z,34.83
2019-03-21T13:14:38.474Z,35.07
2019-03-21T13:17:09.786Z,34.72
2019-03-21T13:19:41.052Z,34.90
2019-03-21T13:22:12.627Z,35.28
2019-03-21T13:24:43.887Z,34.19
2019-03-21T13:27:15.173Z,33.99
2019-03-21T13:29:46.393Z,34.44
2019-03-21T13:32:17.590Z,35.60
2019-03-21T13:34:49.163Z,34.81
2019-03-21T13:37:20.636Z,35.08
2019-03-21T13:39:51.833Z,34.23
2019-03-21T13:42:23.061Z,34.61
2019-03-21T13:44:54.340Z,35.11
2019-03-21T13:47:25.649Z,35.10
2019-03-21T13:49:57.149Z,34.82
2019-03-21T13:52:28.461Z,35.85
2019-03-21T13:54:59.631Z,34.93
2019-03-21T13:57:30.873Z,35.50
2019-03-21T14:00:02.154Z,34.75
2019-03-21T14:02:33.405Z,35.04
2019-03-21T14:05:05.190Z,36.09
2019-03-21T14:07:36.948Z,35.86
2019-03-21T14:10:09.414Z,36.43
2019-03-21T14:12:41.024Z,35.63
2019-03-21T14:15:14.090Z,35.99
2019-03-21T14:17:45.446Z,35.90
2019-03-21T14:20:17.453Z,36.55
2019-03-21T14:22:49.399Z,35.59
2019-03-21T14:25:20.653Z,36.50
2019-03-21T14:27:52.222Z,36.51
2019-03-21T14:30:23.476Z,37.08
2019-03-21T14:32:54.839Z,37.41
2019-03-21T14:35:26.208Z,37.21
2019-03-21T14:37:57.430Z,37.88
2019-03-21T14:40:28.695Z,38.37
2019-03-21T14:43:00.008Z,39.05
2019-03-21T14:45:31.469Z,38.89
2019-03-21T14:48:02.870Z,39.21
2019-03-21T14:50:34.377Z,39.87
2019-03-21T14:53:06.342Z,40.42
2019-03-21T14:55:47.061Z,40.02
2019-03-21T14:58:11.511Z,40.21
2019-03-21T15:00:42.980Z,40.23
2019-03-21T15:03:14.373Z,40.87
2019-03-21T15:05:45.870Z,41.25
2019-03-21T15:08:17.386Z,41.41
2019-03-21T15:10:48.704Z,41.58
2019-03-21T15:13:20.212Z,41.20
2019-03-21T15:15:51.457Z,42.56
2019-03-21T15:18:22.835Z,43.49
2019-03-21T15:20:54.022Z,43.50
2019-03-21T15:23:26.034Z,43.46
2019-03-21T15:25:57.586Z,44.74
2019-03-21T15:28:29.046Z,44.89
2019-03-21T15:31:00.535Z,45.05
2019-03-21T15:33:31.849Z,44.89
2019-03-21T15:36:03.338Z,45.61
2019-03-21T15:38:36.008Z,45.65
2019-03-21T15:41:07.322Z,46.29
2019-03-21T15:43:38.905Z,46.75
2019-03-21T15:46:10.134Z,46.81
2019-03-21T15:48:41.683Z,46.86
2019-03-21T15:51:12.939Z,47.46
2019-03-21T15:53:54.787Z,47.37
2019-03-21T15:56:18.025Z,48.12
2019-03-21T15:58:49.290Z,48.48
2019-03-21T16:01:20.514Z,48.60
2019-03-21T16:03:52.099Z,48.89
2019-03-21T16:06:23.365Z,48.58
2019-03-21T16:08:54.666Z,48.64
2019-03-21T16:11:26.652Z,49.21
2019-03-21T16:13:57.829Z,49.74
2019-03-21T16:16:29.136Z,49.15
2019-03-21T16:19:00.434Z,50.08
2019-03-21T16:21:31.718Z,49.71
2019-03-21T16:24:05.536Z,49.72
2019-03-21T16:26:36.965Z,50.24
2019-03-21T16:29:10.199Z,50.32
2019-03-21T16:31:41.118Z,50.63
2019-03-21T16:34:12.512Z,51.04
2019-03-21T16:36:43.768Z,51.19
2019-03-21T16:39:15.035Z,51.36
2019-03-21T16:41:46.628Z,51.75
2019-03-21T16:44:18.101Z,51.74
2019-03-21T16:46:49.555Z,52.00
2019-03-21T16:49:20.768Z,51.63
2019-03-21T16:51:52.009Z,52.25
2019-03-21T16:54:23.313Z,51.81
2019-03-21T16:56:54.914Z,52.00
2019-03-21T16:59:26.164Z,51.70
2019-03-21T17:01:57.449Z,52.42
2019-03-21T17:04:28.770Z,52.42
2019-03-21T17:06:59.998Z,53.21
2019-03-21T17:09:31.183Z,53.24
2019-03-21T17:12:02.812Z,53.37
2019-03-21T17:14:34.398Z,54.10
2019-03-21T17:17:05.693Z,54.05
2019-03-21T17:19:37.074Z,54.20
2019-03-21T17:22:08.342Z,54.48
2019-03-21T17:24:39.644Z,54.93
2019-03-21T17:27:10.918Z,55.39
2019-03-21T17:29:42.457Z,55.67
2019-03-21T17:32:14.031Z,56.21
2019-03-21T17:34:45.328Z,55.95
2019-03-21T17:37:16.590Z,56.08
2019-03-21T17:39:48.267Z,56.36
2019-03-21T17:42:21.158Z,56.73
2019-03-21T17:44:52.558Z,57.29
2019-03-21T17:47:24.278Z,57.70
2019-03-21T17:49:55.524Z,58.46
2019-03-21T17:52:26.830Z,58.96
2019-03-21T17:54:58.068Z,59.24
2019-03-21T17:57:34.412Z,59.95
2019-03-21T18:00:02.658Z,60.38
2019-03-21T18:02:34.038Z,60.65
2019-03-21T18:05:07.215Z,60.90
2019-03-21T18:07:38.464Z,61.11
2019-03-21T18:10:21.630Z,61.77
2019-03-21T18:12:52.901Z,61.93
2019-03-21T18:15:24.403Z,62.29
2019-03-21T18:17:55.922Z,62.65
2019-03-21T18:20:47.431Z,63.00
2019-03-21T18:23:19.292Z,63.27
2019-03-21T18:25:50.610Z,64.06
2019-03-21T18:28:21.873Z,64.33
2019-03-21T18:30:53.177Z,64.54
2019-03-21T18:33:24.247Z,65.00
2019-03-21T18:35:55.484Z,65.19
2019-03-21T18:38:26.787Z,65.69
2019-03-21T18:40:58.297Z,66.72
2019-03-21T18:43:29.503Z,66.40
2019-03-21T18:46:00.808Z,66.71
2019-03-21T18:48:32.129Z,67.14
2019-03-21T18:51:03.451Z,67.16
2019-03-21T18:53:34.781Z,67.94
2019-03-21T18:56:09.292Z,68.37
2019-03-21T18:58:40.166Z,68.67
2019-03-21T19:01:11.431Z,69.03
2019-03-21T19:03:42.696Z,69.32
2019-03-21T19:06:14.829Z,69.66
2019-03-21T19:08:46.384Z,69.87
2019-03-21T19:11:17.930Z,70.10
2019-03-21T19:13:49.266Z,70.50
2019-03-21T19:16:20.536Z,70.78
2019-03-21T19:18:51.811Z,71.36
2019-03-21T19:21:23.376Z,71.29
2019-03-21T19:23:54.936Z,71.44
2019-03-21T19:26:26.212Z,72.18
2019-03-21T19:28:57.714Z,72.65
2019-03-21T19:31:29.323Z,72.72
2019-03-21T19:34:00.599Z,72.87
2019-03-21T19:36:31.915Z,73.11
2019-03-21T19:39:03.293Z,73.22
2019-03-21T19:41:34.657Z,73.48
2019-03-21T19:44:05.963Z,73.66
2019-03-21T19:46:37.337Z,73.72
2019-03-21T19:49:08.631Z,73.56
2019-03-21T19:51:39.926Z,73.76
2019-03-21T19:54:11.199Z,73.95
2019-03-21T19:56:42.503Z,74.23
2019-03-21T19:59:13.826Z,74.29
2019-03-21T20:01:45.091Z,74.21
2019-03-21T20:04:16.656Z,74.62
2019-03-21T20:06:48.002Z,74.77
2019-03-21T20:09:19.637Z,75.08
2019-03-21T20:11:53.265Z,75.02
2019-03-21T20:14:24.852Z,75.34
2019-03-21T20:16:56.244Z,75.83
2019-03-21T20:19:27.701Z,76.07
2019-03-21T20:21:59.874Z,76.37
2019-03-21T20:24:31.333Z,76.51
2019-03-21T20:27:03.209Z,76.83
2019-03-21T20:29:34.620Z,77.23
2019-03-21T20:32:06.601Z,77.33
2019-03-21T20:34:37.984Z,77.86
2019-03-21T20:37:09.558Z,78.06
2019-03-21T20:39:41.493Z,78.19
2019-03-21T20:42:12.994Z,78.48
2019-03-21T20:44:44.767Z,78.66
2019-03-21T20:47:16.448Z,78.95
2019-03-21T20:49:47.898Z,79.28
2019-03-21T20:52:19.632Z,79.46
2019-03-21T20:54:51.670Z,79.82
2019-03-21T20:57:23.696Z,80.04
2019-03-21T20:59:55.645Z,80.29
2019-03-21T21:02:27.188Z,80.40
2019-03-21T21:04:59.460Z,80.73
2019-03-21T21:07:31.836Z,80.83
2019-03-21T21:10:07.649Z,80.80
2019-03-21T21:12:39.132Z,81.04
2019-03-21T21:15:13.756Z,81.40
2019-03-21T21:17:45.589Z,81.42
2019-03-21T21:20:18.491Z,81.33
2019-03-21T21:22:50.928Z,81.10
2019-03-21T21:25:22.903Z,81.54
2019-03-21T21:27:54.400Z,81.81
2019-03-21T21:30:26.029Z,82.17
2019-03-21T21:33:00.128Z,82.66
2019-03-21T21:35:32.087Z,82.73
2019-03-21T21:38:03.725Z,82.95
2019-03-21T21:40:36.204Z,82.79
2019-03-21T21:43:08.407Z,83.20
2019-03-21T21:45:39.824Z,83.20
2019-03-21T21:48:11.390Z,83.47
2019-03-21T21:50:42.971Z,83.93
2019-03-21T21:53:14.646Z,83.87
2019-03-21T21:55:46.375Z,83.89
2019-03-21T21:58:17.665Z,84.15
2019-03-21T22:00:49.462Z,84.30
2019-03-21T22:03:21.052Z,84.57
2019-03-21T22:05:52.825Z,84.72
2019-03-21T22:08:24.233Z,85.01
2019-03-21T22:10:56.156Z,85.25
2019-03-21T22:13:27.474Z,85.43
2019-03-21T22:15:58.952Z,85.93
2019-03-21T22:18:30.383Z,86.21
2019-03-21T22:21:02.212Z,86.32
2019-03-21T22:23:33.561Z,86.66
2019-03-21T22:26:05.165Z,86.88
2019-03-21T22:28:36.420Z,87.29
2019-03-21T22:31:07.842Z,87.42
2019-03-21T22:33:39.111Z,87.67
2019-03-21T22:36:10.781Z,88.27
2019-03-21T22:38:42.416Z,88.49
2019-03-21T22:41:13.690Z,88.81
2019-03-21T22:43:45.016Z,89.00
2019-03-21T22:46:16.434Z,89.52
2019-03-21T22:48:47.729Z,89.13
2019-03-21T22:51:19.353Z,89.59
2019-03-21T22:53:51.112Z,89.81
2019-03-21T22:56:22.648Z,90.26
2019-03-21T22:58:53.914Z,90.59
2019-03-21T23:01:25.468Z,90.57
2019-03-21T23:03:57.028Z,90.64
2019-03-21T23:06:28.298Z,90.61
2019-03-21T23:08:59.816Z,90.86
2019-03-21T23:11:31.167Z,90.81
2019-03-21T23:14:02.524Z,91.21
2019-03-21T23:16:33.847Z,91.42
2019-03-21T23:19:05.365Z,91.55
2019-03-21T23:21:36.663Z,91.63
2019-03-21T23:24:08.058Z,91.81
2019-03-21T23:26:39.738Z,92.39
2019-03-21T23:29:11.309Z,92.55
2019-03-21T23:31:42.807Z,92.89
2019-03-21T23:34:14.347Z,92.99
2019-03-21T23:36:46.012Z,93.16
2019-03-21T23:39:17.708Z,93.93
2019-03-21T23:41:49.031Z,93.99
2019-03-21T23:44:20.343Z,94.27
2019-03-21T23:46:51.732Z,94.44
2019-03-21T23:49:24.163Z,94.58
2019-03-21T23:51:55.536Z,94.72
2019-03-21T23:54:26.879Z,95.02
2019-03-21T23:57:04.408Z,95.09
2019-03-21T23:59:31.338Z,95.78
